sensor_id;sensor_type;location;lat;lon;timestamp;temperature;humidity
60309;DHT22;50313;52.894;6.492;2023-10-13T00:00:32;15.70;99.90
60309;DHT22;50313;52.894;6.492;2023-10-13T00:03:05;15.80;99.90
60309;DHT22;50313;52.894;6.492;2023-10-13T00:05:32;15.90;99.90
60309;DHT22;50313;52.894;6.492;2023-10-13T00:08:03;15.80;99.90
60309;DHT22;50313;52.894;6.492;2023-10-13T00:10:30;15.80;99.90
60309;DHT22;50313;52.894;6.492;2023-10-13T00:12:56;15.80;99.90
60309;DHT22;50313;52.894;6.492;2023-10-13T00:15:45;15.90;99.90
60309;DHT22;50313;52.894;6.492;2023-10-13T00:18:32;15.90;99.90
60309;DHT22;50313;52.894;6.492;2023-10-13T00:21:04;16.00;99.90
60309;DHT22;50313;52.894;6.492;2023-10-13T00:23:38;16.00;99.90
60309;DHT22;50313;52.894;6.492;2023-10-13T00:26:05;16.00;99.90
60309;DHT22;50313;52.894;6.492;2023-10-13T00:28:34;16.10;99.90
60309;DHT22;50313;52.894;6.492;2023-10-13T00:31:12;16.10;99.90
60309;DHT22;50313;52.894;6.492;2023-10-13T00:33:40;16.10;99.90
60309;DHT22;50313;52.894;6.492;2023-10-13T00:36:12;16.20;99.90
60309;DHT22;50313;52.894;6.492;2023-10-13T00:38:45;16.20;99.90
60309;DHT22;50313;52.894;6.492;2023-10-13T00:41:14;16.30;99.90
60309;DHT22;50313;52.894;6.492;2023-10-13T00:43:48;16.30;99.90
60309;DHT22;50313;52.894;6.492;2023-10-13T00:46:36;16.20;99.90
60309;DHT22;50313;52.894;6.492;2023-10-13T00:49:03;16.20;99.90
60309;DHT22;50313;52.894;6.492;2023-10-13T00:51:30;16.20;99.90
60309;DHT22;50313;52.894;6.492;2023-10-13T00:54:07;16.30;99.90
60309;DHT22;50313;52.894;6.492;2023-10-13T00:56:41;16.20;99.90
60309;DHT22;50313;52.894;6.492;2023-10-13T00:59:17;16.30;99.90
60309;DHT22;50313;52.894;6.492;2023-10-13T01:01:48;16.20;99.90
60309;DHT22;50313;52.894;6.492;2023-10-13T01:04:20;16.30;99.90
60309;DHT22;50313;52.894;6.492;2023-10-13T01:06:48;16.30;99.90
60309;DHT22;50313;52.894;6.492;2023-10-13T01:09:14;16.20;99.90
60309;DHT22;50313;52.894;6.492;2023-10-13T01:11:50;16.20;99.90
60309;DHT22;50313;52.894;6.492;2023-10-13T01:14:20;16.30;99.90
60309;DHT22;50313;52.894;6.492;2023-10-13T01:16:47;16.30;99.90
60309;DHT22;50313;52.894;6.492;2023-10-13T01:22:56;16.20;99.90
60309;DHT22;50313;52.894;6.492;2023-10-13T01:25:25;16.30;99.90
60309;DHT22;50313;52.894;6.492;2023-10-13T01:27:54;16.30;99.90
60309;DHT22;50313;52.894;6.492;2023-10-13T01:30:20;16.30;99.90
60309;DHT22;50313;52.894;6.492;2023-10-13T01:32:53;16.30;99.90
60309;DHT22;50313;52.894;6.492;2023-10-13T01:35:20;16.30;99.90
60309;DHT22;50313;52.894;6.492;2023-10-13T01:37:51;16.30;99.90
60309;DHT22;50313;52.894;6.492;2023-10-13T01:40:17;16.30;99.90
60309;DHT22;50313;52.894;6.492;2023-10-13T01:42:49;16.30;99.90
60309;DHT22;50313;52.894;6.492;2023-10-13T01:45:23;16.30;99.90
60309;DHT22;50313;52.894;6.492;2023-10-13T01:47:54;16.30;99.90
60309;DHT22;50313;52.894;6.492;2023-10-13T01:50:20;16.30;99.90
60309;DHT22;50313;52.894;6.492;2023-10-13T01:52:47;16.30;99.90
60309;DHT22;50313;52.894;6.492;2023-10-13T01:55:13;16.30;99.90
60309;DHT22;50313;52.894;6.492;2023-10-13T01:57:39;16.30;99.90
60309;DHT22;50313;52.894;6.492;2023-10-13T02:00:09;16.30;99.90
60309;DHT22;50313;52.894;6.492;2023-10-13T02:02:45;16.30;99.90
60309;DHT22;50313;52.894;6.492;2023-10-13T02:05:16;16.30;99.90
60309;DHT22;50313;52.894;6.492;2023-10-13T02:07:43;16.30;99.90
60309;DHT22;50313;52.894;6.492;2023-10-13T02:10:11;16.30;99.90
60309;DHT22;50313;52.894;6.492;2023-10-13T02:12:38;16.30;99.90
60309;DHT22;50313;52.894;6.492;2023-10-13T02:15:13;16.30;99.90
60309;DHT22;50313;52.894;6.492;2023-10-13T02:17:48;16.30;99.90
60309;DHT22;50313;52.894;6.492;2023-10-13T02:20:17;16.30;99.90
60309;DHT22;50313;52.894;6.492;2023-10-13T02:22:52;16.40;99.90
60309;DHT22;50313;52.894;6.492;2023-10-13T02:25:18;16.40;99.90
60309;DHT22;50313;52.894;6.492;2023-10-13T02:28:23;16.30;99.90
60309;DHT22;50313;52.894;6.492;2023-10-13T02:30:53;16.30;99.90
60309;DHT22;50313;52.894;6.492;2023-10-13T02:33:19;16.30;99.90
60309;DHT22;50313;52.894;6.492;2023-10-13T02:36:02;16.40;99.90
60309;DHT22;50313;52.894;6.492;2023-10-13T02:38:34;16.40;99.90
60309;DHT22;50313;52.894;6.492;2023-10-13T02:41:02;16.30;99.90
60309;DHT22;50313;52.894;6.492;2023-10-13T02:43:35;16.30;99.90
60309;DHT22;50313;52.894;6.492;2023-10-13T02:46:01;16.40;99.90
60309;DHT22;50313;52.894;6.492;2023-10-13T02:48:28;16.30;99.90
60309;DHT22;50313;52.894;6.492;2023-10-13T02:51:07;16.40;99.90
60309;DHT22;50313;52.894;6.492;2023-10-13T02:53:43;16.30;99.90
60309;DHT22;50313;52.894;6.492;2023-10-13T02:56:12;16.30;99.90
60309;DHT22;50313;52.894;6.492;2023-10-13T02:58:42;16.30;99.90
60309;DHT22;50313;52.894;6.492;2023-10-13T03:01:11;16.30;99.90
60309;DHT22;50313;52.894;6.492;2023-10-13T03:03:53;16.30;99.90
60309;DHT22;50313;52.894;6.492;2023-10-13T03:06:33;16.30;99.90
60309;DHT22;50313;52.894;6.492;2023-10-13T03:09:04;16.30;99.90
60309;DHT22;50313;52.894;6.492;2023-10-13T03:11:48;16.30;99.90
60309;DHT22;50313;52.894;6.492;2023-10-13T03:14:18;16.30;99.90
60309;DHT22;50313;52.894;6.492;2023-10-13T03:16:55;16.20;99.90
60309;DHT22;50313;52.894;6.492;2023-10-13T03:19:28;16.20;99.90
60309;DHT22;50313;52.894;6.492;2023-10-13T03:22:01;16.30;99.90
60309;DHT22;50313;52.894;6.492;2023-10-13T03:24:50;16.20;99.90
60309;DHT22;50313;52.894;6.492;2023-10-13T03:27:19;16.20;99.90
60309;DHT22;50313;52.894;6.492;2023-10-13T03:29:49;16.20;99.90
60309;DHT22;50313;52.894;6.492;2023-10-13T03:32:22;16.20;99.90
60309;DHT22;50313;52.894;6.492;2023-10-13T03:34:51;16.30;99.90
60309;DHT22;50313;52.894;6.492;2023-10-13T03:37:37;16.30;99.90
60309;DHT22;50313;52.894;6.492;2023-10-13T03:40:13;16.20;99.90
60309;DHT22;50313;52.894;6.492;2023-10-13T03:42:47;16.30;99.90
60309;DHT22;50313;52.894;6.492;2023-10-13T03:45:27;16.30;99.90
60309;DHT22;50313;52.894;6.492;2023-10-13T03:47:54;16.30;99.90
60309;DHT22;50313;52.894;6.492;2023-10-13T03:50:20;16.20;99.90
60309;DHT22;50313;52.894;6.492;2023-10-13T03:52:57;16.20;99.90
60309;DHT22;50313;52.894;6.492;2023-10-13T03:55:27;16.30;99.90
60309;DHT22;50313;52.894;6.492;2023-10-13T03:57:54;16.20;99.90
60309;DHT22;50313;52.894;6.492;2023-10-13T04:00:23;16.20;99.90
60309;DHT22;50313;52.894;6.492;2023-10-13T04:02:54;16.30;99.90
60309;DHT22;50313;52.894;6.492;2023-10-13T04:05:32;16.20;99.90
60309;DHT22;50313;52.894;6.492;2023-10-13T04:08:26;16.20;99.90
60309;DHT22;50313;52.894;6.492;2023-10-13T04:10:56;16.20;99.90
60309;DHT22;50313;52.894;6.492;2023-10-13T04:13:22;16.20;99.90
60309;DHT22;50313;52.894;6.492;2023-10-13T04:16:08;16.20;99.90
60309;DHT22;50313;52.894;6.492;2023-10-13T04:18:49;16.20;99.90
60309;DHT22;50313;52.894;6.492;2023-10-13T04:21:24;16.20;99.90
60309;DHT22;50313;52.894;6.492;2023-10-13T04:24:02;16.20;99.90
60309;DHT22;50313;52.894;6.492;2023-10-13T04:26:49;16.20;99.90
60309;DHT22;50313;52.894;6.492;2023-10-13T04:29:34;16.20;99.90
60309;DHT22;50313;52.894;6.492;2023-10-13T04:32:18;16.20;99.90
60309;DHT22;50313;52.894;6.492;2023-10-13T04:35:04;16.20;99.90
60309;DHT22;50313;52.894;6.492;2023-10-13T04:37:44;16.20;99.90
60309;DHT22;50313;52.894;6.492;2023-10-13T04:40:19;16.20;99.90
60309;DHT22;50313;52.894;6.492;2023-10-13T04:42:52;16.20;99.90
60309;DHT22;50313;52.894;6.492;2023-10-13T04:45:30;16.20;99.90
60309;DHT22;50313;52.894;6.492;2023-10-13T04:48:00;16.20;99.90
60309;DHT22;50313;52.894;6.492;2023-10-13T04:50:46;16.20;99.90
60309;DHT22;50313;52.894;6.492;2023-10-13T04:53:17;16.20;99.90
60309;DHT22;50313;52.894;6.492;2023-10-13T04:55:59;16.10;99.90
60309;DHT22;50313;52.894;6.492;2023-10-13T04:58:31;16.20;99.90
60309;DHT22;50313;52.894;6.492;2023-10-13T05:01:03;16.20;99.90
60309;DHT22;50313;52.894;6.492;2023-10-13T05:03:49;16.10;99.90
60309;DHT22;50313;52.894;6.492;2023-10-13T05:06:33;16.10;99.90
60309;DHT22;50313;52.894;6.492;2023-10-13T05:09:14;16.10;99.90
60309;DHT22;50313;52.894;6.492;2023-10-13T05:11:58;16.10;99.90
60309;DHT22;50313;52.894;6.492;2023-10-13T05:14:43;16.10;99.90
60309;DHT22;50313;52.894;6.492;2023-10-13T05:17:27;16.10;99.90
60309;DHT22;50313;52.894;6.492;2023-10-13T05:20:12;16.00;99.90
60309;DHT22;50313;52.894;6.492;2023-10-13T05:23:10;15.90;99.90
60309;DHT22;50313;52.894;6.492;2023-10-13T05:25:54;15.90;99.90
60309;DHT22;50313;52.894;6.492;2023-10-13T05:28:38;15.90;99.90
60309;DHT22;50313;52.894;6.492;2023-10-13T05:31:23;15.90;99.90
60309;DHT22;50313;52.894;6.492;2023-10-13T05:34:07;15.90;99.90
60309;DHT22;50313;52.894;6.492;2023-10-13T05:36:51;15.90;99.90
60309;DHT22;50313;52.894;6.492;2023-10-13T05:39:36;15.90;99.90
60309;DHT22;50313;52.894;6.492;2023-10-13T05:42:20;15.90;99.90
60309;DHT22;50313;52.894;6.492;2023-10-13T05:45:05;15.90;99.90
60309;DHT22;50313;52.894;6.492;2023-10-13T05:47:43;15.90;99.90
60309;DHT22;50313;52.894;6.492;2023-10-13T05:50:13;15.90;99.90
60309;DHT22;50313;52.894;6.492;2023-10-13T05:52:59;15.90;99.90
60309;DHT22;50313;52.894;6.492;2023-10-13T05:55:29;15.90;99.90
60309;DHT22;50313;52.894;6.492;2023-10-13T05:58:13;15.90;99.90
60309;DHT22;50313;52.894;6.492;2023-10-13T06:00:58;15.90;99.90
60309;DHT22;50313;52.894;6.492;2023-10-13T06:03:43;15.90;99.90
60309;DHT22;50313;52.894;6.492;2023-10-13T06:06:27;15.90;99.90
60309;DHT22;50313;52.894;6.492;2023-10-13T06:09:12;15.90;99.90
60309;DHT22;50313;52.894;6.492;2023-10-13T06:11:56;15.90;99.90
60309;DHT22;50313;52.894;6.492;2023-10-13T06:14:44;15.90;99.90
60309;DHT22;50313;52.894;6.492;2023-10-13T06:17:28;15.90;99.90
60309;DHT22;50313;52.894;6.492;2023-10-13T06:20:13;15.90;99.90
60309;DHT22;50313;52.894;6.492;2023-10-13T06:22:57;16.00;99.90
60309;DHT22;50313;52.894;6.492;2023-10-13T06:25:42;16.00;99.90
60309;DHT22;50313;52.894;6.492;2023-10-13T06:28:26;16.00;99.90
60309;DHT22;50313;52.894;6.492;2023-10-13T06:31:08;16.00;99.90
60309;DHT22;50313;52.894;6.492;2023-10-13T06:33:39;16.00;99.90
60309;DHT22;50313;52.894;6.492;2023-10-13T06:36:11;16.10;99.90
60309;DHT22;50313;52.894;6.492;2023-10-13T06:38:37;16.10;99.90
60309;DHT22;50313;52.894;6.492;2023-10-13T06:41:06;16.10;99.90
60309;DHT22;50313;52.894;6.492;2023-10-13T06:43:33;16.20;99.90
60309;DHT22;50313;52.894;6.492;2023-10-13T06:46:06;16.10;99.90
60309;DHT22;50313;52.894;6.492;2023-10-13T06:48:33;16.20;99.90
60309;DHT22;50313;52.894;6.492;2023-10-13T06:51:03;16.20;99.90
60309;DHT22;50313;52.894;6.492;2023-10-13T06:53:31;16.30;99.90
60309;DHT22;50313;52.894;6.492;2023-10-13T06:56:05;16.30;99.90
60309;DHT22;50313;52.894;6.492;2023-10-13T06:58:32;16.30;99.90
60309;DHT22;50313;52.894;6.492;2023-10-13T07:00:58;16.40;99.90
60309;DHT22;50313;52.894;6.492;2023-10-13T07:03:25;16.40;99.90
60309;DHT22;50313;52.894;6.492;2023-10-13T07:05:51;16.40;99.90
60309;DHT22;50313;52.894;6.492;2023-10-13T07:08:17;16.40;99.90
60309;DHT22;50313;52.894;6.492;2023-10-13T07:10:53;16.40;99.90
60309;DHT22;50313;52.894;6.492;2023-10-13T07:13:30;16.40;99.90
60309;DHT22;50313;52.894;6.492;2023-10-13T07:15:56;16.40;99.90
60309;DHT22;50313;52.894;6.492;2023-10-13T07:18:38;16.40;99.90
60309;DHT22;50313;52.894;6.492;2023-10-13T07:21:17;16.40;99.90
60309;DHT22;50313;52.894;6.492;2023-10-13T07:23:50;16.40;99.90
60309;DHT22;50313;52.894;6.492;2023-10-13T07:26:27;16.40;99.90
60309;DHT22;50313;52.894;6.492;2023-10-13T07:28:54;16.40;99.90
60309;DHT22;50313;52.894;6.492;2023-10-13T07:31:20;16.40;99.90
60309;DHT22;50313;52.894;6.492;2023-10-13T07:33:47;16.40;99.90
60309;DHT22;50313;52.894;6.492;2023-10-13T07:36:13;16.40;99.90
60309;DHT22;50313;52.894;6.492;2023-10-13T07:38:46;16.40;99.90
60309;DHT22;50313;52.894;6.492;2023-10-13T07:41:14;16.40;99.90
60309;DHT22;50313;52.894;6.492;2023-10-13T07:43:42;16.40;99.90
60309;DHT22;50313;52.894;6.492;2023-10-13T07:46:08;16.40;99.90
60309;DHT22;50313;52.894;6.492;2023-10-13T07:48:39;16.40;99.90
60309;DHT22;50313;52.894;6.492;2023-10-13T07:51:11;16.40;99.90
60309;DHT22;50313;52.894;6.492;2023-10-13T07:53:42;16.40;99.90
60309;DHT22;50313;52.894;6.492;2023-10-13T07:56:12;16.40;99.90
60309;DHT22;50313;52.894;6.492;2023-10-13T07:58:38;16.40;99.90
60309;DHT22;50313;52.894;6.492;2023-10-13T08:01:19;16.40;99.90
60309;DHT22;50313;52.894;6.492;2023-10-13T08:03:45;16.40;99.90
60309;DHT22;50313;52.894;6.492;2023-10-13T08:06:17;16.40;99.90
60309;DHT22;50313;52.894;6.492;2023-10-13T08:08:43;16.50;99.90
60309;DHT22;50313;52.894;6.492;2023-10-13T08:11:14;16.50;99.90
60309;DHT22;50313;52.894;6.492;2023-10-13T08:13:57;16.60;99.90
60309;DHT22;50313;52.894;6.492;2023-10-13T08:16:29;16.50;99.90
60309;DHT22;50313;52.894;6.492;2023-10-13T08:19:18;16.60;99.90
60309;DHT22;50313;52.894;6.492;2023-10-13T08:21:45;16.60;99.90
60309;DHT22;50313;52.894;6.492;2023-10-13T08:24:17;16.60;99.90
60309;DHT22;50313;52.894;6.492;2023-10-13T08:26:51;16.60;99.90
60309;DHT22;50313;52.894;6.492;2023-10-13T08:29:24;16.60;99.90
60309;DHT22;50313;52.894;6.492;2023-10-13T08:31:55;16.60;99.90
60309;DHT22;50313;52.894;6.492;2023-10-13T08:34:30;16.60;99.90
60309;DHT22;50313;52.894;6.492;2023-10-13T08:37:07;16.70;99.90
60309;DHT22;50313;52.894;6.492;2023-10-13T08:39:57;16.70;99.90
60309;DHT22;50313;52.894;6.492;2023-10-13T08:42:34;16.70;99.90
60309;DHT22;50313;52.894;6.492;2023-10-13T08:45:12;16.80;99.90
60309;DHT22;50313;52.894;6.492;2023-10-13T08:47:54;16.80;99.90
60309;DHT22;50313;52.894;6.492;2023-10-13T08:50:34;16.80;99.90
60309;DHT22;50313;52.894;6.492;2023-10-13T08:58:29;17.00;99.90
60309;DHT22;50313;52.894;6.492;2023-10-13T09:01:15;17.10;99.90
60309;DHT22;50313;52.894;6.492;2023-10-13T09:04:06;17.10;99.90
60309;DHT22;50313;52.894;6.492;2023-10-13T09:06:45;17.20;99.90
60309;DHT22;50313;52.894;6.492;2023-10-13T09:09:16;17.30;99.90
60309;DHT22;50313;52.894;6.492;2023-10-13T09:12:00;17.30;99.90
60309;DHT22;50313;52.894;6.492;2023-10-13T09:14:39;17.40;99.90
60309;DHT22;50313;52.894;6.492;2023-10-13T09:17:13;17.50;99.90
60309;DHT22;50313;52.894;6.492;2023-10-13T09:19:46;17.50;99.90
60309;DHT22;50313;52.894;6.492;2023-10-13T09:22:28;17.50;99.90
60309;DHT22;50313;52.894;6.492;2023-10-13T09:25:02;17.50;99.90
60309;DHT22;50313;52.894;6.492;2023-10-13T09:27:30;17.60;99.90
60309;DHT22;50313;52.894;6.492;2023-10-13T09:29:58;17.60;99.90
60309;DHT22;50313;52.894;6.492;2023-10-13T09:32:44;17.70;99.90
60309;DHT22;50313;52.894;6.492;2023-10-13T09:35:18;17.80;99.90
60309;DHT22;50313;52.894;6.492;2023-10-13T09:37:46;17.80;99.90
60309;DHT22;50313;52.894;6.492;2023-10-13T09:40:15;18.00;99.90
60309;DHT22;50313;52.894;6.492;2023-10-13T09:42:53;18.10;99.90
60309;DHT22;50313;52.894;6.492;2023-10-13T09:45:27;18.10;99.90
60309;DHT22;50313;52.894;6.492;2023-10-13T09:47:55;18.10;99.90
60309;DHT22;50313;52.894;6.492;2023-10-13T09:50:36;18.20;99.90
60309;DHT22;50313;52.894;6.492;2023-10-13T09:53:05;18.30;99.90
60309;DHT22;50313;52.894;6.492;2023-10-13T09:55:38;18.40;99.90
60309;DHT22;50313;52.894;6.492;2023-10-13T09:58:11;18.50;99.90
60309;DHT22;50313;52.894;6.492;2023-10-13T10:00:50;18.50;99.90
60309;DHT22;50313;52.894;6.492;2023-10-13T10:03:48;18.50;99.90
60309;DHT22;50313;52.894;6.492;2023-10-13T10:06:37;18.50;99.90
60309;DHT22;50313;52.894;6.492;2023-10-13T10:09:11;18.60;99.90
60309;DHT22;50313;52.894;6.492;2023-10-13T10:12:01;18.60;99.90
60309;DHT22;50313;52.894;6.492;2023-10-13T10:17:24;18.70;99.90
60309;DHT22;50313;52.894;6.492;2023-10-13T10:19:55;18.80;99.90
60309;DHT22;50313;52.894;6.492;2023-10-13T10:22:41;18.80;99.90
60309;DHT22;50313;52.894;6.492;2023-10-13T10:25:14;18.90;99.90
60309;DHT22;50313;52.894;6.492;2023-10-13T10:27:59;19.00;99.90
60309;DHT22;50313;52.894;6.492;2023-10-13T10:30:26;19.10;99.90
60309;DHT22;50313;52.894;6.492;2023-10-13T10:32:58;19.20;99.90
60309;DHT22;50313;52.894;6.492;2023-10-13T10:35:25;19.30;99.90
60309;DHT22;50313;52.894;6.492;2023-10-13T10:38:27;19.30;99.90
60309;DHT22;50313;52.894;6.492;2023-10-13T10:40:58;19.40;99.90
60309;DHT22;50313;52.894;6.492;2023-10-13T10:48:37;19.80;99.90
60309;DHT22;50313;52.894;6.492;2023-10-13T10:51:12;19.80;99.90
60309;DHT22;50313;52.894;6.492;2023-10-13T10:53:51;19.80;99.90
60309;DHT22;50313;52.894;6.492;2023-10-13T10:56:25;19.60;99.90
60309;DHT22;50313;52.894;6.492;2023-10-13T10:59:03;19.60;99.90
60309;DHT22;50313;52.894;6.492;2023-10-13T11:01:31;19.60;99.90
60309;DHT22;50313;52.894;6.492;2023-10-13T11:04:07;19.60;99.90
60309;DHT22;50313;52.894;6.492;2023-10-13T11:06:50;19.60;99.90
60309;DHT22;50313;52.894;6.492;2023-10-13T11:09:33;19.50;99.90
60309;DHT22;50313;52.894;6.492;2023-10-13T11:12:14;19.40;99.90
60309;DHT22;50313;52.894;6.492;2023-10-13T11:14:45;19.50;99.90
60309;DHT22;50313;52.894;6.492;2023-10-13T11:17:20;19.60;99.90
60309;DHT22;50313;52.894;6.492;2023-10-13T11:19:52;19.60;99.90
60309;DHT22;50313;52.894;6.492;2023-10-13T11:22:20;19.70;99.90
60309;DHT22;50313;52.894;6.492;2023-10-13T11:25:29;19.80;99.90
60309;DHT22;50313;52.894;6.492;2023-10-13T11:27:56;19.70;99.90
60309;DHT22;50313;52.894;6.492;2023-10-13T11:30:25;19.80;99.90
60309;DHT22;50313;52.894;6.492;2023-10-13T11:33:02;19.80;99.90
60309;DHT22;50313;52.894;6.492;2023-10-13T11:35:32;19.80;99.90
60309;DHT22;50313;52.894;6.492;2023-10-13T11:38:17;19.70;99.90
60309;DHT22;50313;52.894;6.492;2023-10-13T11:40:56;19.60;99.90
60309;DHT22;50313;52.894;6.492;2023-10-13T11:43:43;19.70;99.90
60309;DHT22;50313;52.894;6.492;2023-10-13T11:46:09;19.60;99.90
60309;DHT22;50313;52.894;6.492;2023-10-13T11:48:36;19.60;99.90
60309;DHT22;50313;52.894;6.492;2023-10-13T11:51:06;19.70;99.90
60309;DHT22;50313;52.894;6.492;2023-10-13T11:53:35;19.70;99.90
60309;DHT22;50313;52.894;6.492;2023-10-13T11:56:05;19.60;99.90
60309;DHT22;50313;52.894;6.492;2023-10-13T11:58:38;19.60;99.90
60309;DHT22;50313;52.894;6.492;2023-10-13T12:01:05;19.60;99.90
60309;DHT22;50313;52.894;6.492;2023-10-13T12:03:53;19.60;99.90
60309;DHT22;50313;52.894;6.492;2023-10-13T12:06:37;19.60;99.90
60309;DHT22;50313;52.894;6.492;2023-10-13T12:09:07;19.60;99.90
60309;DHT22;50313;52.894;6.492;2023-10-13T12:11:46;19.50;99.90
60309;DHT22;50313;52.894;6.492;2023-10-13T12:14:12;19.50;99.90
60309;DHT22;50313;52.894;6.492;2023-10-13T12:16:55;19.50;99.90
60309;DHT22;50313;52.894;6.492;2023-10-13T12:19:25;19.50;99.90
60309;DHT22;50313;52.894;6.492;2023-10-13T12:21:53;19.50;99.90
60309;DHT22;50313;52.894;6.492;2023-10-13T12:24:28;19.50;99.90
60309;DHT22;50313;52.894;6.492;2023-10-13T12:27:07;19.50;99.90
60309;DHT22;50313;52.894;6.492;2023-10-13T12:32:12;19.50;99.90
60309;DHT22;50313;52.894;6.492;2023-10-13T12:34:39;19.50;99.90
60309;DHT22;50313;52.894;6.492;2023-10-13T12:37:24;19.50;99.90
60309;DHT22;50313;52.894;6.492;2023-10-13T12:40:06;19.50;99.90
60309;DHT22;50313;52.894;6.492;2023-10-13T12:42:51;19.50;99.90
60309;DHT22;50313;52.894;6.492;2023-10-13T12:45:39;19.50;99.90
60309;DHT22;50313;52.894;6.492;2023-10-13T12:48:23;19.50;99.90
60309;DHT22;50313;52.894;6.492;2023-10-13T12:51:08;19.70;99.90
60309;DHT22;50313;52.894;6.492;2023-10-13T12:53:52;19.80;99.90
60309;DHT22;50313;52.894;6.492;2023-10-13T12:56:20;19.90;92.60
60309;DHT22;50313;52.894;6.492;2023-10-13T12:58:52;20.00;62.70
60309;DHT22;50313;52.894;6.492;2023-10-13T13:01:27;20.00;92.10
60309;DHT22;50313;52.894;6.492;2023-10-13T13:03:59;19.90;98.40
60309;DHT22;50313;52.894;6.492;2023-10-13T13:06:29;19.90;25.60
60309;DHT22;50313;52.894;6.492;2023-10-13T13:08:56;19.90;84.60
60309;DHT22;50313;52.894;6.492;2023-10-13T13:11:29;19.80;99.90
60309;DHT22;50313;52.894;6.492;2023-10-13T13:13:55;19.70;99.90
60309;DHT22;50313;52.894;6.492;2023-10-13T13:16:21;19.60;99.90
60309;DHT22;50313;52.894;6.492;2023-10-13T13:18:50;19.60;99.90
60309;DHT22;50313;52.894;6.492;2023-10-13T13:21:16;19.60;99.90
60309;DHT22;50313;52.894;6.492;2023-10-13T13:23:52;19.50;99.90
60309;DHT22;50313;52.894;6.492;2023-10-13T13:26:24;19.50;99.90
60309;DHT22;50313;52.894;6.492;2023-10-13T13:28:50;19.50;99.90
60309;DHT22;50313;52.894;6.492;2023-10-13T13:31:19;19.50;99.90
60309;DHT22;50313;52.894;6.492;2023-10-13T13:33:50;19.50;99.90
60309;DHT22;50313;52.894;6.492;2023-10-13T13:36:16;19.40;99.90
60309;DHT22;50313;52.894;6.492;2023-10-13T13:38:43;19.40;99.90
60309;DHT22;50313;52.894;6.492;2023-10-13T13:41:16;19.40;99.90
60309;DHT22;50313;52.894;6.492;2023-10-13T13:43:49;19.40;99.90
60309;DHT22;50313;52.894;6.492;2023-10-13T13:46:21;19.20;99.90
60309;DHT22;50313;52.894;6.492;2023-10-13T13:48:51;19.20;99.90
60309;DHT22;50313;52.894;6.492;2023-10-13T13:51:23;19.10;99.90
60309;DHT22;50313;52.894;6.492;2023-10-13T13:53:56;19.10;99.90
60309;DHT22;50313;52.894;6.492;2023-10-13T13:56:22;19.00;99.90
60309;DHT22;50313;52.894;6.492;2023-10-13T13:58:51;18.90;99.90
60309;DHT22;50313;52.894;6.492;2023-10-13T14:01:18;18.80;99.90
60309;DHT22;50313;52.894;6.492;2023-10-13T14:03:51;18.80;99.90
60309;DHT22;50313;52.894;6.492;2023-10-13T14:06:22;18.80;99.90
60309;DHT22;50313;52.894;6.492;2023-10-13T14:08:58;18.80;99.90
60309;DHT22;50313;52.894;6.492;2023-10-13T14:11:32;18.80;99.90
60309;DHT22;50313;52.894;6.492;2023-10-13T14:14:12;18.70;99.90
60309;DHT22;50313;52.894;6.492;2023-10-13T14:16:41;18.60;99.90
60309;DHT22;50313;52.894;6.492;2023-10-13T14:19:14;18.60;99.90
60309;DHT22;50313;52.894;6.492;2023-10-13T14:22:00;18.60;99.90
60309;DHT22;50313;52.894;6.492;2023-10-13T14:24:33;18.60;99.90
60309;DHT22;50313;52.894;6.492;2023-10-13T14:27:03;18.60;99.90
60309;DHT22;50313;52.894;6.492;2023-10-13T14:29:43;18.60;99.90
60309;DHT22;50313;52.894;6.492;2023-10-13T14:32:13;18.70;99.90
60309;DHT22;50313;52.894;6.492;2023-10-13T14:34:41;18.70;99.90
60309;DHT22;50313;52.894;6.492;2023-10-13T14:37:07;18.70;99.90
60309;DHT22;50313;52.894;6.492;2023-10-13T14:39:34;18.70;99.90
60309;DHT22;50313;52.894;6.492;2023-10-13T14:42:02;18.70;99.90
60309;DHT22;50313;52.894;6.492;2023-10-13T14:44:28;18.70;99.90
60309;DHT22;50313;52.894;6.492;2023-10-13T14:46:54;18.70;99.90
60309;DHT22;50313;52.894;6.492;2023-10-13T14:49:22;18.70;99.90
60309;DHT22;50313;52.894;6.492;2023-10-13T14:51:48;18.80;99.90
60309;DHT22;50313;52.894;6.492;2023-10-13T14:54:15;18.80;99.90
60309;DHT22;50313;52.894;6.492;2023-10-13T14:56:41;18.70;99.90
60309;DHT22;50313;52.894;6.492;2023-10-13T14:59:08;18.70;99.90
60309;DHT22;50313;52.894;6.492;2023-10-13T15:01:42;18.60;99.90
60309;DHT22;50313;52.894;6.492;2023-10-13T15:04:08;18.30;99.90
60309;DHT22;50313;52.894;6.492;2023-10-13T15:06:34;18.10;99.90
60309;DHT22;50313;52.894;6.492;2023-10-13T15:09:01;18.00;99.90
60309;DHT22;50313;52.894;6.492;2023-10-13T15:11:29;17.80;99.90
60309;DHT22;50313;52.894;6.492;2023-10-13T15:14:06;17.80;99.90
60309;DHT22;50313;52.894;6.492;2023-10-13T15:16:34;17.70;99.90
60309;DHT22;50313;52.894;6.492;2023-10-13T15:19:00;17.70;99.90
60309;DHT22;50313;52.894;6.492;2023-10-13T15:21:29;17.70;99.90
60309;DHT22;50313;52.894;6.492;2023-10-13T15:24:04;17.70;99.90
60309;DHT22;50313;52.894;6.492;2023-10-13T15:26:43;17.70;99.90
60309;DHT22;50313;52.894;6.492;2023-10-13T15:29:17;17.60;99.90
60309;DHT22;50313;52.894;6.492;2023-10-13T15:31:46;17.60;99.90
60309;DHT22;50313;52.894;6.492;2023-10-13T15:34:24;17.60;99.90
60309;DHT22;50313;52.894;6.492;2023-10-13T15:36:52;17.60;99.90
60309;DHT22;50313;52.894;6.492;2023-10-13T15:39:20;17.60;99.90
60309;DHT22;50313;52.894;6.492;2023-10-13T15:41:50;17.60;99.90
60309;DHT22;50313;52.894;6.492;2023-10-13T15:44:20;17.50;99.90
60309;DHT22;50313;52.894;6.492;2023-10-13T15:46:53;17.60;99.90
60309;DHT22;50313;52.894;6.492;2023-10-13T15:49:19;17.60;99.90
60309;DHT22;50313;52.894;6.492;2023-10-13T15:51:44;17.60;99.90
60309;DHT22;50313;52.894;6.492;2023-10-13T15:54:11;17.60;99.90
60309;DHT22;50313;52.894;6.492;2023-10-13T15:56:44;17.60;99.90
60309;DHT22;50313;52.894;6.492;2023-10-13T15:59:10;17.60;99.90
60309;DHT22;50313;52.894;6.492;2023-10-13T16:01:36;17.50;99.90
60309;DHT22;50313;52.894;6.492;2023-10-13T16:04:04;17.50;99.90
60309;DHT22;50313;52.894;6.492;2023-10-13T16:06:40;17.50;99.90
60309;DHT22;50313;52.894;6.492;2023-10-13T16:09:06;17.50;99.90
60309;DHT22;50313;52.894;6.492;2023-10-13T16:11:42;17.50;99.90
60309;DHT22;50313;52.894;6.492;2023-10-13T16:14:09;17.50;99.90
60309;DHT22;50313;52.894;6.492;2023-10-13T16:16:36;17.40;99.90
60309;DHT22;50313;52.894;6.492;2023-10-13T16:19:02;17.40;99.90
60309;DHT22;50313;52.894;6.492;2023-10-13T16:21:32;17.40;99.90
60309;DHT22;50313;52.894;6.492;2023-10-13T16:24:00;17.40;99.90
60309;DHT22;50313;52.894;6.492;2023-10-13T16:26:26;17.50;99.90
60309;DHT22;50313;52.894;6.492;2023-10-13T16:28:52;17.50;99.90
60309;DHT22;50313;52.894;6.492;2023-10-13T16:31:23;17.40;99.90